Time;durP1;ratioP1;P1;durP2;ratioP2;P2;SDS_P1;SDS_P2;PMS_P1;PMS_P2;Temp;Humidity;BMP_temperature;BMP_pressure;BME280_temperature;BME280_humidity;BME280_pressure;Samples;Min_cycle;Max_cycle;Signal;HPM_P1;HPM_P2
2023/10/20 00:01:36;;;;;;;;;;;;;;;20.91;55.65;99053.63;5036898;28;6453;-68
2023/10/20 00:04:03;;;;;;;;;;;;;;;20.87;55.56;99055.72;5039711;28;2081;-68
2023/10/20 00:06:29;;;;;;;;;;;;;;;20.83;55.97;99062.13;5038079;28;2121;-69
2023/10/20 00:08:56;;;;;;;;;;;;;;;20.78;56.16;99054.88;5038800;28;2155;-69
2023/10/20 00:11:25;;;;;;;;;;;;;;;20.82;56.10;99059.94;5020954;28;2141;-68
2023/10/20 00:13:52;;;;;;;;;;;;;;;20.84;56.01;99057.81;5037464;28;2114;-68
2023/10/20 00:16:25;;;;;;;;;;;;;;;20.87;55.81;99062.22;5037205;28;2279;-68
2023/10/20 00:18:51;;;;;;;;;;;;;;;20.85;55.73;99059.28;5035780;28;2315;-69
2023/10/20 00:21:18;;;;;;;;;;;;;;;20.84;55.66;99063.56;5037041;28;2181;-68
2023/10/20 00:23:44;;;;;;;;;;;;;;;20.82;55.96;99054.94;5039400;28;2190;-68
2023/10/20 00:26:11;;;;;;;;;;;;;;;20.87;55.69;99053.56;5038380;28;2122;-68
2023/10/20 00:28:38;;;;;;;;;;;;;;;20.84;55.75;99046.31;5022344;28;2214;-69
2023/10/20 00:31:05;;;;;;;;;;;;;;;20.83;55.30;99047.75;5037922;28;6137;-68
2023/10/20 00:33:32;;;;;;;;;;;;;;;20.81;55.61;99050.59;5038978;28;2039;-69
2023/10/20 00:35:58;;;;;;;;;;;;;;;20.81;55.58;99047.00;5020864;28;2205;-68
2023/10/20 00:38:24;;;;;;;;;;;;;;;20.81;55.72;99041.97;5019195;28;2367;-68
2023/10/20 00:40:51;;;;;;;;;;;;;;;20.85;55.47;99038.44;5038714;28;2321;-68
2023/10/20 00:43:17;;;;;;;;;;;;;;;20.82;55.67;99039.81;5014857;28;2227;-69
2023/10/20 00:45:44;;;;;;;;;;;;;;;20.85;55.43;99039.16;5038879;28;2089;-68
2023/10/20 00:48:11;;;;;;;;;;;;;;;20.79;55.58;99050.56;5038223;28;2235;-68
2023/10/20 00:50:38;;;;;;;;;;;;;;;20.81;55.71;99027.59;5019636;28;2219;-69
2023/10/20 00:53:05;;;;;;;;;;;;;;;20.81;55.52;99018.97;5040493;28;2102;-68
2023/10/20 00:55:31;;;;;;;;;;;;;;;20.84;55.65;99011.06;5020565;28;2171;-68
2023/10/20 00:57:58;;;;;;;;;;;;;;;20.72;55.99;99017.38;5038801;28;2094;-68
2023/10/20 01:00:24;;;;;;;;;;;;;;;20.77;55.95;99012.41;5020102;28;6352;-68
2023/10/20 01:02:54;;;;;;;;;;;;;;;20.78;55.64;99025.38;5020861;28;2277;-69
2023/10/20 01:05:23;;;;;;;;;;;;;;;20.81;55.77;99029.75;5039698;28;2146;-69
2023/10/20 01:07:50;;;;;;;;;;;;;;;20.78;55.63;99019.63;5025819;28;2368;-69
2023/10/20 01:10:16;;;;;;;;;;;;;;;20.79;55.57;99021.78;5027680;28;2190;-68
2023/10/20 01:12:42;;;;;;;;;;;;;;;20.82;55.69;99037.69;5023220;28;2012;-68
2023/10/20 01:15:09;;;;;;;;;;;;;;;20.78;55.43;99037.63;5024011;28;2159;-69
2023/10/20 01:17:36;;;;;;;;;;;;;;;20.74;55.93;99042.56;5007901;28;2264;-68
2023/10/20 01:20:03;;;;;;;;;;;;;;;20.77;55.83;99024.63;5040683;28;2192;-69
2023/10/20 01:22:30;;;;;;;;;;;;;;;20.81;55.30;99018.97;5041615;28;1989;-69
2023/10/20 01:24:57;;;;;;;;;;;;;;;20.82;55.59;99031.94;5040417;28;2114;-69
2023/10/20 01:27:23;;;;;;;;;;;;;;;20.76;55.75;99023.19;5037955;28;2574;-69
2023/10/20 01:29:49;;;;;;;;;;;;;;;20.76;55.59;99026.06;5036280;28;2192;-69
2023/10/20 01:32:16;;;;;;;;;;;;;;;20.76;55.54;99033.97;5035204;28;6240;-68
2023/10/20 01:34:43;;;;;;;;;;;;;;;20.76;55.60;99028.22;5040210;28;2246;-69
2023/10/20 01:37:11;;;;;;;;;;;;;;;20.68;55.87;99012.31;5040267;28;2161;-69
2023/10/20 01:39:38;;;;;;;;;;;;;;;20.71;55.59;99013.06;5040687;28;2003;-69
2023/10/20 01:42:04;;;;;;;;;;;;;;;20.76;55.56;99008.81;5040527;28;2143;-69
2023/10/20 01:44:31;;;;;;;;;;;;;;;20.72;55.69;98994.38;5023865;28;2280;-69
2023/10/20 01:46:59;;;;;;;;;;;;;;;20.76;55.74;98994.44;5040154;28;2113;-69
2023/10/20 01:49:25;;;;;;;;;;;;;;;20.78;55.36;99005.97;5039715;28;2091;-69
2023/10/20 01:51:52;;;;;;;;;;;;;;;20.76;55.48;99000.19;5020439;28;2233;-69
2023/10/20 01:54:18;;;;;;;;;;;;;;;20.73;55.50;98992.97;5041753;28;2340;-69
2023/10/20 01:56:44;;;;;;;;;;;;;;;20.68;55.64;99000.06;5037394;28;2327;-69
2023/10/20 01:59:11;;;;;;;;;;;;;;;20.73;55.54;99000.84;5008556;28;1801;-69
2023/10/20 02:01:38;;;;;;;;;;;;;;;20.72;55.75;99003.00;5023713;28;6035;-69
2023/10/20 02:04:05;;;;;;;;;;;;;;;20.71;55.38;99013.06;5022211;28;2115;-69
2023/10/20 02:06:31;;;;;;;;;;;;;;;20.72;55.38;98997.25;5036788;28;2131;-69
2023/10/20 02:08:58;;;;;;;;;;;;;;;20.74;55.46;98997.28;5040666;28;2461;-69
2023/10/20 02:11:24;;;;;;;;;;;;;;;20.73;55.29;99000.84;5038511;28;2293;-69
2023/10/20 02:13:51;;;;;;;;;;;;;;;20.72;55.29;98994.38;5039424;28;2319;-69
2023/10/20 02:16:18;;;;;;;;;;;;;;;20.72;55.34;98988.63;5019252;28;2169;-69
2023/10/20 02:18:44;;;;;;;;;;;;;;;20.73;55.51;98987.22;5022602;28;2138;-69
2023/10/20 02:21:12;;;;;;;;;;;;;;;20.69;55.63;98990.75;5022628;28;2157;-69
2023/10/20 02:23:39;;;;;;;;;;;;;;;20.68;55.51;98971.28;5039959;28;2218;-69
2023/10/20 02:26:06;;;;;;;;;;;;;;;20.73;55.49;98972.81;5037996;28;2269;-69
2023/10/20 02:28:35;;;;;;;;;;;;;;;20.72;55.59;98959.84;5039736;28;2185;-69
2023/10/20 02:31:09;;;;;;;;;;;;;;;20.65;55.50;98955.44;5020815;28;6337;-69
2023/10/20 02:33:36;;;;;;;;;;;;;;;20.66;55.60;98959.75;5037325;28;2129;-69
2023/10/20 02:36:02;;;;;;;;;;;;;;;20.63;55.41;98955.41;5038991;28;2197;-69
2023/10/20 02:38:30;;;;;;;;;;;;;;;20.70;55.67;98954.06;5021784;28;2188;-68
2023/10/20 02:40:56;;;;;;;;;;;;;;;20.72;55.27;98951.22;5039935;28;2091;-69
2023/10/20 02:43:23;;;;;;;;;;;;;;;20.67;55.42;98952.59;5038894;28;2305;-69
2023/10/20 02:45:53;;;;;;;;;;;;;;;20.68;55.41;98942.53;5022912;28;2128;-69
2023/10/20 02:48:19;;;;;;;;;;;;;;;20.59;55.82;98941.72;5005533;28;2152;-69
2023/10/20 02:50:47;;;;;;;;;;;;;;;20.58;55.80;98933.78;5039118;28;2479;-69
2023/10/20 02:53:13;;;;;;;;;;;;;;;20.55;56.00;98935.13;5038575;28;2240;-69
2023/10/20 02:55:40;;;;;;;;;;;;;;;20.51;55.84;98924.31;5036746;28;2194;-69
2023/10/20 02:58:07;;;;;;;;;;;;;;;20.51;56.06;98942.28;5023019;28;2022;-69
2023/10/20 03:00:34;;;;;;;;;;;;;;;20.51;56.00;98936.53;5037282;28;6018;-69
2023/10/20 03:03:00;;;;;;;;;;;;;;;20.52;55.95;98934.38;5040525;28;2542;-71
2023/10/20 03:05:27;;;;;;;;;;;;;;;20.53;55.90;98932.25;5040105;28;2145;-72
2023/10/20 03:07:54;;;;;;;;;;;;;;;20.52;56.14;98920.00;5037994;28;2163;-71
2023/10/20 03:10:21;;;;;;;;;;;;;;;20.51;55.98;98925.03;5021686;28;2187;-71
2023/10/20 03:12:47;;;;;;;;;;;;;;;20.53;56.10;98920.75;5021415;28;2216;-71
2023/10/20 03:15:13;;;;;;;;;;;;;;;20.54;56.02;98917.16;5022940;28;2143;-71
2023/10/20 03:17:40;;;;;;;;;;;;;;;20.53;55.95;98915.00;5023260;28;2122;-71
2023/10/20 03:20:14;;;;;;;;;;;;;;;20.51;55.80;98907.78;5037279;28;2094;-71
2023/10/20 03:22:41;;;;;;;;;;;;;;;20.53;56.02;98912.13;5039199;28;2113;-71
2023/10/20 03:25:09;;;;;;;;;;;;;;;20.55;55.82;98917.88;5037324;28;2289;-71
2023/10/20 03:27:37;;;;;;;;;;;;;;;20.55;55.96;98912.13;5019741;28;2110;-71
2023/10/20 03:30:05;;;;;;;;;;;;;;;20.55;55.93;98901.38;5036884;28;6244;-70
2023/10/20 03:32:33;;;;;;;;;;;;;;;20.57;55.94;98906.44;5038234;28;2201;-71
2023/10/20 03:34:59;;;;;;;;;;;;;;;20.57;55.85;98907.19;5038019;28;2107;-71
2023/10/20 03:37:26;;;;;;;;;;;;;;;20.57;55.73;98910.06;5020860;28;2125;-71
2023/10/20 03:39:53;;;;;;;;;;;;;;;20.57;56.00;98903.56;5022522;28;2218;-71
2023/10/20 03:42:19;;;;;;;;;;;;;;;20.56;55.79;98908.59;5036556;28;2122;-71
2023/10/20 03:44:47;;;;;;;;;;;;;;;20.58;55.88;98890.66;5039140;28;2359;-71
2023/10/20 03:47:15;;;;;;;;;;;;;;;20.56;56.01;98884.84;5040193;28;2055;-71
2023/10/20 03:49:41;;;;;;;;;;;;;;;20.57;55.82;98871.94;5038566;28;2204;-71
2023/10/20 03:52:11;;;;;;;;;;;;;;;20.56;56.19;98865.47;5021319;28;2135;-71
2023/10/20 03:54:41;;;;;;;;;;;;;;;20.55;55.88;98858.25;5038907;28;2186;-71
2023/10/20 03:57:07;;;;;;;;;;;;;;;20.55;55.89;98851.75;5022477;28;2210;-71
2023/10/20 03:59:34;;;;;;;;;;;;;;;20.56;56.03;98856.09;5039711;28;2207;-71
2023/10/20 04:02:01;;;;;;;;;;;;;;;20.57;56.05;98863.31;5033107;28;6193;-71
2023/10/20 04:04:28;;;;;;;;;;;;;;;20.58;55.79;98867.63;5020850;28;2039;-71
2023/10/20 04:06:54;;;;;;;;;;;;;;;20.57;55.84;98869.06;5036508;28;2517;-70
2023/10/20 04:09:21;;;;;;;;;;;;;;;20.58;55.87;98862.59;5022941;28;2157;-71
2023/10/20 04:11:48;;;;;;;;;;;;;;;20.60;55.77;98856.88;5035983;28;2208;-71
2023/10/20 04:14:15;;;;;;;;;;;;;;;20.59;55.79;98854.69;5034229;28;2228;-71
2023/10/20 04:16:42;;;;;;;;;;;;;;;20.60;55.98;98844.66;5038676;28;2117;-71
2023/10/20 04:19:15;;;;;;;;;;;;;;;20.58;55.83;98844.63;5036390;28;2369;-73
2023/10/20 04:21:43;;;;;;;;;;;;;;;20.64;55.76;98851.19;5038509;28;2213;-72
2023/10/20 04:24:10;;;;;;;;;;;;;;;20.64;55.94;98851.19;5039941;28;2199;-76
2023/10/20 04:26:37;;;;;;;;;;;;;;;20.68;55.79;98839.00;5040602;28;2111;-72
2023/10/20 04:46:52;;;;;;;;;;;;;;;20.73;55.58;98846.28;5027125;28;2138;-72
2023/10/20 04:48:20;;;;;;;;;;;;;;;20.75;55.80;98845.56;5043645;28;1973;-72
2023/10/20 04:51:09;;;;;;;;;;;;;;;20.75;55.62;98860.66;5044754;28;2495;-72
2023/10/20 04:58:58;;;;;;;;;;;;;;;20.71;56.15;98854.88;5021577;28;2127;-72
2023/10/20 05:01:39;;;;;;;;;;;;;;;20.75;56.00;98843.41;5039165;28;6122;-73
2023/10/20 05:04:28;;;;;;;;;;;;;;;20.88;58.61;98827.75;5019244;28;2225;-76
2023/10/20 05:07:05;;;;;;;;;;;;;;;21.29;58.96;98828.22;5039912;28;2636;-76
2023/10/20 05:09:43;;;;;;;;;;;;;;;21.57;57.76;98843.63;5041236;28;2382;-75
2023/10/20 05:12:10;;;;;;;;;;;;;;;21.68;57.10;98854.53;5040939;28;2863;-75
2023/10/20 05:14:36;;;;;;;;;;;;;;;21.32;56.44;98844.06;5040165;28;2233;-77
2023/10/20 05:17:04;;;;;;;;;;;;;;;21.07;56.30;98845.22;5040585;28;2200;-74
2023/10/20 05:19:33;;;;;;;;;;;;;;;21.03;56.09;98848.09;5040345;28;2245;-76
2023/10/20 05:22:00;;;;;;;;;;;;;;;21.09;55.34;98848.84;5043565;28;2158;-70
2023/10/20 05:24:26;;;;;;;;;;;;;;;21.01;54.35;98842.31;5043030;28;2048;-77
2023/10/20 05:26:53;;;;;;;;;;;;;;;20.99;53.67;98836.53;5043595;28;1992;-80
2023/10/20 05:29:20;;;;;;;;;;;;;;;21.16;53.59;98838.13;5042041;28;2200;-76
2023/10/20 05:31:46;;;;;;;;;;;;;;;21.22;51.80;98846.84;5042795;28;6357;-77
2023/10/20 05:34:13;;;;;;;;;;;;;;;21.21;51.86;98844.66;5044063;28;2145;-70
2023/10/20 05:36:42;;;;;;;;;;;;;;;21.28;51.88;98851.94;5042801;28;2130;-76
2023/10/20 05:39:09;;;;;;;;;;;;;;;21.19;50.07;98851.13;5040582;28;2260;-77
2023/10/20 05:41:35;;;;;;;;;;;;;;;21.16;50.03;98846.78;5035685;28;4480;-77
2023/10/20 05:44:04;;;;;;;;;;;;;;;21.27;48.97;98836.81;5031482;28;4196;-74
2023/10/20 05:46:31;;;;;;;;;;;;;;;21.44;49.69;98825.50;5040675;28;2854;-73
2023/10/20 05:48:57;;;;;;;;;;;;;;;21.56;49.00;98831.38;5039044;28;2791;-75
2023/10/20 05:51:24;;;;;;;;;;;;;;;21.39;50.26;98816.06;5030352;28;4545;-75
2023/10/20 05:53:53;;;;;;;;;;;;;;;21.43;50.47;98807.50;5040181;28;4304;-75
2023/10/20 05:56:19;;;;;;;;;;;;;;;21.51;50.20;98806.88;5038965;28;2215;-75
2023/10/20 05:58:46;;;;;;;;;;;;;;;21.51;50.26;98801.81;5036362;28;4093;-75
2023/10/20 06:01:12;;;;;;;;;;;;;;;21.42;50.76;98808.22;5038514;28;6101;-76
2023/10/20 06:03:39;;;;;;;;;;;;;;;21.52;51.24;98791.03;5042505;28;2280;-82
2023/10/20 06:06:05;;;;;;;;;;;;;;;21.48;51.17;98800.34;5024870;28;2219;-83
2023/10/20 06:08:32;;;;;;;;;;;;;;;21.52;51.45;98796.78;5042849;28;2323;-81
2023/10/20 06:10:59;;;;;;;;;;;;;;;21.53;51.34;98789.59;5040487;28;2286;-78
2023/10/20 06:13:25;;;;;;;;;;;;;;;21.43;52.04;98789.50;5042770;28;2280;-81
2023/10/20 06:15:52;;;;;;;;;;;;;;;21.36;52.10;98790.84;5038883;28;2353;-69
2023/10/20 06:18:18;;;;;;;;;;;;;;;21.19;52.40;98807.22;5040264;28;2307;-76
2023/10/20 06:21:01;;;;;;;;;;;;;;;21.15;52.85;98813.69;5038259;28;2288;-75
2023/10/20 06:23:27;;;;;;;;;;;;;;;21.13;52.76;98823.00;5038900;28;2444;-69
2023/10/20 06:25:54;;;;;;;;;;;;;;;21.14;52.89;98817.97;5022644;28;2400;-76
2023/10/20 06:28:20;;;;;;;;;;;;;;;21.12;53.06;98815.09;5041794;28;2216;-77
2023/10/20 06:30:48;;;;;;;;;;;;;;;21.09;53.26;98822.25;5037611;28;6006;-76
2023/10/20 06:33:17;;;;;;;;;;;;;;;20.96;53.22;98803.38;5036629;28;2174;-69
2023/10/20 06:35:52;;;;;;;;;;;;;;;20.91;53.62;98786.09;5040089;28;2256;-79
2023/10/20 06:38:25;;;;;;;;;;;;;;;21.00;52.91;98786.16;5037256;28;2303;-76
2023/10/20 06:40:52;;;;;;;;;;;;;;;21.33;53.02;98776.44;5041962;28;2315;-75
2023/10/20 06:43:19;;;;;;;;;;;;;;;21.51;53.23;98783.84;5041848;28;2212;-78
2023/10/20 06:45:53;;;;;;;;;;;;;;;21.60;52.83;98770.19;5041143;28;2238;-78
2023/10/20 06:48:20;;;;;;;;;;;;;;;21.65;52.80;98763.06;5035080;28;2431;-76
2023/10/20 06:50:47;;;;;;;;;;;;;;;21.63;52.71;98763.03;5036051;28;4305;-76
2023/10/20 06:53:13;;;;;;;;;;;;;;;21.69;52.66;98772.47;5038865;28;2383;-77
2023/10/20 06:55:40;;;;;;;;;;;;;;;21.59;52.70;98763.72;5025133;28;2312;-77
2023/10/20 06:58:27;;;;;;;;;;;;;;;21.66;53.23;98762.34;5041234;28;2275;-78
2023/10/20 07:00:53;;;;;;;;;;;;;;;21.69;52.69;98755.19;5039440;28;6451;-78
2023/10/20 07:03:20;;;;;;;;;;;;;;;21.72;52.85;98762.41;5042573;28;2293;-78
2023/10/20 07:05:47;;;;;;;;;;;;;;;21.78;52.82;98764.59;5041307;28;2369;-78
2023/10/20 07:08:14;;;;;;;;;;;;;;;21.68;52.74;98756.59;5043322;28;2267;-78
2023/10/20 07:10:40;;;;;;;;;;;;;;;21.55;53.15;98740.66;5040080;28;2376;-81
2023/10/20 07:13:07;;;;;;;;;;;;;;;21.47;53.56;98740.59;5024917;28;2354;-79
2023/10/20 07:15:36;;;;;;;;;;;;;;;21.44;53.31;98739.13;5040322;28;2310;-79
2023/10/20 07:18:03;;;;;;;;;;;;;;;21.56;53.27;98732.75;5030869;28;2377;-73
2023/10/20 07:20:30;;;;;;;;;;;;;;;21.49;53.37;98723.34;5038093;28;2291;-70
2023/10/20 07:22:56;;;;;;;;;;;;;;;21.43;53.92;98708.91;5031243;28;2508;-70
2023/10/20 07:25:23;;;;;;;;;;;;;;;21.34;53.77;98725.34;5035281;28;4352;-70
2023/10/20 07:27:49;;;;;;;;;;;;;;;21.45;54.27;98717.56;5026957;28;2974;-68
2023/10/20 07:30:16;;;;;;;;;;;;;;;21.45;54.02;98734.81;5038803;28;6163;-71
2023/10/20 07:32:43;;;;;;;;;;;;;;;21.42;53.68;98742.00;5041908;28;1962;-67
2023/10/20 07:35:13;;;;;;;;;;;;;;;21.51;53.86;98732.72;5039267;28;2424;-69
2023/10/20 07:37:39;;;;;;;;;;;;;;;21.56;53.59;98716.19;5039544;28;2333;-68
2023/10/20 07:40:07;;;;;;;;;;;;;;;21.51;53.77;98714.72;5038701;28;2388;-65
2023/10/20 07:42:33;;;;;;;;;;;;;;;21.48;54.08;98713.25;5039205;28;2187;-68
2023/10/20 07:45:00;;;;;;;;;;;;;;;21.40;53.94;98698.78;5039748;28;2221;-76
2023/10/20 07:47:27;;;;;;;;;;;;;;;21.74;53.55;98701.91;5021270;28;2264;-79
2023/10/20 07:49:53;;;;;;;;;;;;;;;21.56;53.53;98710.44;5014169;28;2545;-84
2023/10/20 07:52:20;;;;;;;;;;;;;;;21.56;54.04;98710.44;5034177;28;4260;-78
2023/10/20 07:54:46;;;;;;;;;;;;;;;21.60;53.91;98698.22;5039416;28;2402;-75
2023/10/20 07:57:14;;;;;;;;;;;;;;;21.71;53.86;98685.31;5038889;28;2348;-78
2023/10/20 07:59:42;;;;;;;;;;;;;;;21.67;53.47;98682.41;5023070;28;2357;-86
2023/10/20 08:02:09;;;;;;;;;;;;;;;21.73;53.39;98680.28;5023498;28;6231;-81
2023/10/20 08:04:41;;;;;;;;;;;;;;;21.74;53.50;98672.41;5021919;28;2357;-82
2023/10/20 08:07:09;;;;;;;;;;;;;;;21.75;53.26;98673.84;5039219;28;2434;-81
2023/10/20 08:09:39;;;;;;;;;;;;;;;21.65;53.50;98665.16;5040496;28;2255;-83
2023/10/20 08:12:06;;;;;;;;;;;;;;;21.64;54.04;98670.16;5038175;28;2315;-81
2023/10/20 08:14:33;;;;;;;;;;;;;;;21.83;53.57;98673.16;5037278;28;2227;-79
2023/10/20 08:17:03;;;;;;;;;;;;;;;21.79;53.25;98678.91;5037297;28;2298;-80
2023/10/20 08:19:30;;;;;;;;;;;;;;;21.55;53.95;98680.19;5039715;28;2260;-79
2023/10/20 08:21:57;;;;;;;;;;;;;;;21.47;54.12;98671.50;5040591;28;2291;-79
2023/10/20 08:24:25;;;;;;;;;;;;;;;21.38;54.26;98667.09;5038602;28;2310;-78
2023/10/20 08:26:52;;;;;;;;;;;;;;;21.50;54.25;98676.56;5038832;28;2212;-77
2023/10/20 08:29:18;;;;;;;;;;;;;;;21.60;54.25;98686.69;5022709;28;2240;-77
2023/10/20 08:31:45;;;;;;;;;;;;;;;21.73;53.55;98688.94;5033206;28;6331;-80
2023/10/20 08:34:11;;;;;;;;;;;;;;;21.67;54.01;98697.56;5038694;28;2256;-80
2023/10/20 08:36:38;;;;;;;;;;;;;;;21.67;53.93;98709.09;5038852;28;2278;-78
2023/10/20 08:39:13;;;;;;;;;;;;;;;21.72;53.92;98693.25;5040967;28;2977;-79
2023/10/20 08:41:40;;;;;;;;;;;;;;;21.66;53.59;98690.34;5039071;28;2302;-78
2023/10/20 08:44:06;;;;;;;;;;;;;;;21.73;53.77;98688.22;5033414;28;3590;-80
2023/10/20 08:46:33;;;;;;;;;;;;;;;21.70;53.71;98684.63;5017809;28;2293;-78
2023/10/20 08:48:59;;;;;;;;;;;;;;;21.72;53.52;98675.97;5032533;28;2379;-77
2023/10/20 08:51:26;;;;;;;;;;;;;;;21.59;54.25;98670.84;5037805;28;2412;-81
2023/10/20 08:53:52;;;;;;;;;;;;;;;21.58;53.53;98678.78;5036510;28;2649;-78
2023/10/20 08:56:18;;;;;;;;;;;;;;;21.61;53.84;98688.88;5039742;28;2491;-79
2023/10/20 08:58:46;;;;;;;;;;;;;;;21.61;53.94;98688.88;5018073;28;4156;-78
2023/10/20 09:01:12;;;;;;;;;;;;;;;21.61;53.82;98671.59;5023140;28;6644;-78
2023/10/20 09:03:42;;;;;;;;;;;;;;;21.60;54.07;98675.16;5037996;28;2283;-80
2023/10/20 09:06:10;;;;;;;;;;;;;;;21.60;53.81;98681.69;5021322;28;2402;-80
2023/10/20 09:08:36;;;;;;;;;;;;;;;21.58;54.02;98669.41;5039058;28;2519;-79
2023/10/20 09:11:06;;;;;;;;;;;;;;;21.60;54.26;98670.16;5039104;28;2332;-78
2023/10/20 09:13:37;;;;;;;;;;;;;;;21.58;54.01;98667.25;5039531;28;2187;-77
2023/10/20 09:16:07;;;;;;;;;;;;;;;21.61;54.06;98668.72;5039817;28;2255;-76
2023/10/20 09:18:40;;;;;;;;;;;;;;;21.63;54.02;98657.22;5038943;28;2299;-78
2023/10/20 09:21:07;;;;;;;;;;;;;;;21.69;53.99;98668.78;5022796;28;2356;-78
2023/10/20 09:23:33;;;;;;;;;;;;;;;21.75;53.66;98645.75;5032012;28;4245;-79
2023/10/20 09:26:00;;;;;;;;;;;;;;;21.73;53.83;98660.13;5039911;28;2435;-81
2023/10/20 09:28:27;;;;;;;;;;;;;;;21.76;53.73;98649.34;5041721;28;2334;-81
2023/10/20 09:30:54;;;;;;;;;;;;;;;21.78;53.73;98642.88;5039325;28;6561;-77
2023/10/20 09:33:21;;;;;;;;;;;;;;;21.69;53.71;98631.34;5025668;28;2762;-80
2023/10/20 09:35:49;;;;;;;;;;;;;;;21.70;53.73;98629.88;5040997;28;2373;-80
2023/10/20 09:38:15;;;;;;;;;;;;;;;21.66;54.03;98620.50;5042065;28;2403;-78
2023/10/20 09:40:42;;;;;;;;;;;;;;;21.66;53.85;98624.09;5042257;28;2527;-79
2023/10/20 09:43:19;;;;;;;;;;;;;;;21.67;53.90;98622.69;5034590;28;4684;-80
2023/10/20 09:45:56;;;;;;;;;;;;;;;21.82;53.74;98622.75;5039876;28;4715;-79
2023/10/20 09:48:22;;;;;;;;;;;;;;;21.86;53.32;98614.13;5025422;28;2844;-77
2023/10/20 09:50:49;;;;;;;;;;;;;;;21.86;53.61;98603.31;5020892;28;3042;-83
2023/10/20 09:53:17;;;;;;;;;;;;;;;21.77;53.17;98606.88;5018871;28;4835;-78
2023/10/20 09:55:44;;;;;;;;;;;;;;;21.75;53.60;98599.66;5040438;28;2853;-77
2023/10/20 09:58:14;;;;;;;;;;;;;;;21.77;53.53;98593.19;5040508;28;2728;-78
2023/10/20 10:00:41;;;;;;;;;;;;;;;21.82;53.59;98591.06;5039876;28;6260;-78
2023/10/20 10:03:08;;;;;;;;;;;;;;;21.87;53.19;98598.28;5044602;28;2211;-78
2023/10/20 10:05:39;;;;;;;;;;;;;;;21.87;53.24;98606.91;5044548;28;1631;-79
2023/10/20 10:08:06;;;;;;;;;;;;;;;21.83;53.19;98606.91;5039755;28;4838;-78
2023/10/20 10:10:35;;;;;;;;;;;;;;;21.92;53.41;98609.13;5040001;28;3051;-78
2023/10/20 10:13:05;;;;;;;;;;;;;;;21.91;53.04;98599.00;5039866;28;2310;-77
2023/10/20 10:15:41;;;;;;;;;;;;;;;21.90;53.36;98591.81;5040169;28;2811;-77
2023/10/20 10:18:09;;;;;;;;;;;;;;;21.88;53.25;98593.97;5042050;28;2321;-77
2023/10/20 10:20:46;;;;;;;;;;;;;;;21.90;53.63;98602.63;5024529;28;2311;-78
2023/10/20 10:23:12;;;;;;;;;;;;;;;21.94;53.49;98603.38;5041427;28;2414;-77
2023/10/20 10:25:43;;;;;;;;;;;;;;;21.97;53.10;98604.09;5040659;28;2298;-76
2023/10/20 10:28:10;;;;;;;;;;;;;;;21.99;52.89;98609.88;5039475;28;2323;-78
2023/10/20 10:30:37;;;;;;;;;;;;;;;21.85;53.51;98613.41;5041163;28;6680;-83
2023/10/20 10:33:03;;;;;;;;;;;;;;;21.73;53.75;98596.78;5039366;28;3210;-82
2023/10/20 10:35:29;;;;;;;;;;;;;;;21.69;53.81;98591.00;5018699;28;4855;-81
2023/10/20 10:37:56;;;;;;;;;;;;;;;21.71;53.59;98588.13;5039705;28;2929;-81
2023/10/20 10:40:23;;;;;;;;;;;;;;;21.71;53.67;98588.13;5036580;28;2838;-78
2023/10/20 10:42:50;;;;;;;;;;;;;;;21.74;53.86;98592.47;5036195;28;2436;-75
2023/10/20 10:45:18;;;;;;;;;;;;;;;21.72;53.73;98594.63;5038736;28;2504;-80
2023/10/20 10:47:46;;;;;;;;;;;;;;;21.69;53.70;98591.00;5022863;28;2530;-82
2023/10/20 10:50:15;;;;;;;;;;;;;;;21.65;53.88;98590.28;5020119;28;2408;-82
2023/10/20 10:52:41;;;;;;;;;;;;;;;21.65;53.75;98588.09;5037049;28;2851;-76
2023/10/20 10:55:09;;;;;;;;;;;;;;;21.66;53.81;98595.31;5035414;28;2412;-81
2023/10/20 10:57:36;;;;;;;;;;;;;;;21.62;54.10;98592.41;5038365;28;2329;-81
2023/10/20 11:00:06;;;;;;;;;;;;;;;21.55;54.08;98599.56;5038166;28;4826;-81
2023/10/20 11:02:32;;;;;;;;;;;;;;;21.23;53.13;98592.13;5040352;28;6189;-80
2023/10/20 11:05:00;;;;;;;;;;;;;;;21.37;52.24;98602.31;5019781;28;2882;-82
2023/10/20 11:07:26;;;;;;;;;;;;;;;21.51;52.70;98596.69;5035455;28;2282;-82
2023/10/20 11:09:53;;;;;;;;;;;;;;;21.61;52.76;98601.75;5037433;28;2362;-81
2023/10/20 11:12:20;;;;;;;;;;;;;;;21.57;52.92;98590.22;5040109;28;2342;-79
2023/10/20 11:14:47;;;;;;;;;;;;;;;21.66;53.37;98598.19;5039601;28;2247;-76
2023/10/20 11:17:13;;;;;;;;;;;;;;;21.66;53.38;98598.19;5038195;28;2662;-78
2023/10/20 11:19:40;;;;;;;;;;;;;;;21.66;53.15;98603.94;5038151;28;2248;-77
2023/10/20 11:22:13;;;;;;;;;;;;;;;21.66;53.58;98597.47;5036098;28;2227;-79
2023/10/20 11:24:40;;;;;;;;;;;;;;;21.65;53.58;98596.75;5040502;28;2384;-79
2023/10/20 11:27:07;;;;;;;;;;;;;;;21.80;53.30;98603.28;5019982;28;2146;-82
2023/10/20 11:29:35;;;;;;;;;;;;;;;21.77;53.28;98601.13;5037599;28;2299;-78
2023/10/20 11:32:20;;;;;;;;;;;;;;;21.96;53.22;98608.41;5040670;28;6263;-75
2023/10/20 11:34:47;;;;;;;;;;;;;;;22.01;53.02;98609.84;5021312;28;2278;-76
2023/10/20 11:37:15;;;;;;;;;;;;;;;22.03;52.96;98598.34;5036929;28;2284;-77
2023/10/20 11:39:42;;;;;;;;;;;;;;;22.07;52.46;98604.13;5038559;28;2296;-76
2023/10/20 11:42:10;;;;;;;;;;;;;;;22.05;52.71;98607.00;5038555;28;2200;-76
2023/10/20 11:44:36;;;;;;;;;;;;;;;22.08;52.47;98617.09;5022591;28;2268;-77
2023/10/20 11:47:03;;;;;;;;;;;;;;;21.90;52.98;98614.16;5037935;28;2381;-83
2023/10/20 11:49:29;;;;;;;;;;;;;;;21.73;53.38;98625.56;5040112;28;2190;-80
2023/10/20 11:51:56;;;;;;;;;;;;;;;21.68;53.39;98624.13;5039082;28;2349;-79
2023/10/20 11:54:22;;;;;;;;;;;;;;;21.65;53.50;98622.66;5022689;28;2329;-80
2023/10/20 11:56:49;;;;;;;;;;;;;;;21.65;53.62;98619.78;5022753;28;2742;-84
2023/10/20 11:59:16;;;;;;;;;;;;;;;21.63;53.56;98611.13;5040259;28;2255;-84
2023/10/20 12:01:43;;;;;;;;;;;;;;;21.64;53.32;98614.72;5039041;28;6365;-84
2023/10/20 12:04:10;;;;;;;;;;;;;;;21.64;53.62;98603.94;5040784;28;2243;-79
2023/10/20 12:06:37;;;;;;;;;;;;;;;21.60;53.49;98598.16;5039399;28;2269;-83
2023/10/20 12:09:08;;;;;;;;;;;;;;;21.74;53.16;98597.50;5038912;28;2338;-79
2023/10/20 12:11:36;;;;;;;;;;;;;;;21.80;53.11;98599.69;5039097;28;2187;-81
2023/10/20 12:14:03;;;;;;;;;;;;;;;21.84;53.29;98602.59;5039378;28;2375;-82
2023/10/20 12:16:29;;;;;;;;;;;;;;;21.84;53.22;98585.31;5038785;28;2349;-80
2023/10/20 12:19:01;;;;;;;;;;;;;;;21.64;53.32;98583.75;5035670;28;2231;-75
2023/10/20 12:21:28;;;;;;;;;;;;;;;21.88;53.47;98565.16;5032698;28;4182;-75
2023/10/20 12:23:54;;;;;;;;;;;;;;;22.02;52.97;98556.56;5022059;28;2412;-75
2023/10/20 12:26:21;;;;;;;;;;;;;;;22.03;52.72;98552.22;5037838;28;2346;-75
2023/10/20 12:28:49;;;;;;;;;;;;;;;22.06;52.97;98545.06;5039547;28;2105;-76
2023/10/20 12:31:15;;;;;;;;;;;;;;;22.05;52.77;98532.06;5037036;28;6245;-76
2023/10/20 12:33:44;;;;;;;;;;;;;;;22.06;52.67;98545.06;5037455;28;2286;-75
2023/10/20 12:36:13;;;;;;;;;;;;;;;21.78;52.49;98533.44;5036472;28;2299;-80
2023/10/20 12:38:40;;;;;;;;;;;;;;;20.73;49.21;98532.81;5039806;28;2475;-76
2023/10/20 12:41:07;;;;;;;;;;;;;;;20.97;50.67;98528.66;5038601;28;2281;-82
2023/10/20 12:43:33;;;;;;;;;;;;;;;21.25;51.40;98514.44;5038018;28;2362;-80
2023/10/20 12:46:00;;;;;;;;;;;;;;;21.54;52.12;98506.00;5036835;28;2258;-87
2023/10/20 12:48:27;;;;;;;;;;;;;;;21.63;52.00;98504.59;5037982;28;2321;-91
2023/10/20 12:50:53;;;;;;;;;;;;;;;21.66;52.48;98488.75;5024932;28;2384;-82
2023/10/20 12:53:21;;;;;;;;;;;;;;;21.65;52.63;98484.44;5039797;28;2255;-80
2023/10/20 12:55:47;;;;;;;;;;;;;;;21.63;52.84;98467.16;5036117;28;2198;-80
2023/10/20 12:58:14;;;;;;;;;;;;;;;21.66;52.78;98457.06;5038805;28;2345;-78
2023/10/20 13:00:40;;;;;;;;;;;;;;;21.66;52.89;98457.06;5038824;28;6133;-90
2023/10/20 13:03:07;;;;;;;;;;;;;;;21.68;52.85;98457.06;5039079;28;2347;-79
2023/10/20 13:05:33;;;;;;;;;;;;;;;21.68;52.90;98462.84;5041053;28;2279;-79
2023/10/20 13:08:00;;;;;;;;;;;;;;;21.66;52.96;98442.66;5039005;28;2862;-81
2023/10/20 13:10:27;;;;;;;;;;;;;;;21.94;52.93;98441.28;5039128;28;3239;-75
2023/10/20 13:12:53;;;;;;;;;;;;;;;22.20;52.30;98434.84;5037487;28;2215;-75
2023/10/20 13:15:20;;;;;;;;;;;;;;;22.31;52.30;98432.69;5037667;28;2204;-76
2023/10/20 13:17:46;;;;;;;;;;;;;;;22.40;51.95;98419.72;5037126;28;3028;-75
2023/10/20 13:20:13;;;;;;;;;;;;;;;22.48;52.05;98413.94;5033569;28;4571;-74
2023/10/20 13:22:39;;;;;;;;;;;;;;;22.52;51.89;98419.72;5038636;28;2597;-77